sensor_id;sensor_type;location;lat;lon;timestamp;P1;durP1;ratioP1;P2;durP2;ratioP2
49237;SDS011;35069;47.906;1.892;2024-02-26T00:01:40;21.65;;;4.13;;
49237;SDS011;35069;47.906;1.892;2024-02-26T00:04:06;19.88;;;4.47;;
49237;SDS011;35069;47.906;1.892;2024-02-26T00:06:31;21.70;;;4.60;;
49237;SDS011;35069;47.906;1.892;2024-02-26T00:08:57;14.02;;;3.58;;
49237;SDS011;35069;47.906;1.892;2024-02-26T00:11:23;24.60;;;3.72;;
49237;SDS011;35069;47.906;1.892;2024-02-26T00:13:48;18.92;;;4.68;;
49237;SDS011;35069;47.906;1.892;2024-02-26T00:16:14;20.15;;;4.30;;
49237;SDS011;35069;47.906;1.892;2024-02-26T00:18:40;26.05;;;4.85;;
49237;SDS011;35069;47.906;1.892;2024-02-26T00:21:05;24.88;;;4.63;;
49237;SDS011;35069;47.906;1.892;2024-02-26T00:23:31;16.52;;;4.22;;
49237;SDS011;35069;47.906;1.892;2024-02-26T00:25:56;26.13;;;6.30;;
49237;SDS011;35069;47.906;1.892;2024-02-26T00:28:23;21.35;;;5.03;;
49237;SDS011;35069;47.906;1.892;2024-02-26T00:30:49;24.33;;;5.38;;
49237;SDS011;35069;47.906;1.892;2024-02-26T00:33:20;30.60;;;5.00;;
49237;SDS011;35069;47.906;1.892;2024-02-26T00:35:46;21.80;;;5.10;;
49237;SDS011;35069;47.906;1.892;2024-02-26T00:38:12;19.75;;;5.05;;
49237;SDS011;35069;47.906;1.892;2024-02-26T00:40:38;25.98;;;5.15;;
49237;SDS011;35069;47.906;1.892;2024-02-26T00:43:04;18.02;;;4.03;;
49237;SDS011;35069;47.906;1.892;2024-02-26T00:45:30;21.30;;;4.80;;
49237;SDS011;35069;47.906;1.892;2024-02-26T00:47:57;29.35;;;4.57;;
49237;SDS011;35069;47.906;1.892;2024-02-26T00:50:22;20.00;;;4.45;;
49237;SDS011;35069;47.906;1.892;2024-02-26T00:52:48;24.35;;;4.40;;
49237;SDS011;35069;47.906;1.892;2024-02-26T00:55:14;28.23;;;6.57;;
49237;SDS011;35069;47.906;1.892;2024-02-26T00:57:39;17.40;;;4.07;;
49237;SDS011;35069;47.906;1.892;2024-02-26T01:00:06;24.23;;;4.95;;
49237;SDS011;35069;47.906;1.892;2024-02-26T01:02:33;27.92;;;4.20;;
49237;SDS011;35069;47.906;1.892;2024-02-26T01:04:59;27.58;;;6.22;;
49237;SDS011;35069;47.906;1.892;2024-02-26T01:07:25;35.90;;;4.88;;
49237;SDS011;35069;47.906;1.892;2024-02-26T01:09:50;19.85;;;3.72;;
49237;SDS011;35069;47.906;1.892;2024-02-26T01:12:16;24.13;;;5.30;;
49237;SDS011;35069;47.906;1.892;2024-02-26T01:14:41;21.25;;;4.53;;
49237;SDS011;35069;47.906;1.892;2024-02-26T01:17:07;33.25;;;5.45;;
49237;SDS011;35069;47.906;1.892;2024-02-26T01:19:32;27.02;;;5.00;;
49237;SDS011;35069;47.906;1.892;2024-02-26T01:21:58;22.73;;;5.68;;
49237;SDS011;35069;47.906;1.892;2024-02-26T01:24:23;18.95;;;4.40;;
49237;SDS011;35069;47.906;1.892;2024-02-26T01:26:49;25.48;;;5.13;;
49237;SDS011;35069;47.906;1.892;2024-02-26T01:29:15;31.42;;;6.22;;
49237;SDS011;35069;47.906;1.892;2024-02-26T01:31:40;20.90;;;4.88;;
49237;SDS011;35069;47.906;1.892;2024-02-26T01:34:06;24.40;;;4.80;;
49237;SDS011;35069;47.906;1.892;2024-02-26T01:36:31;32.22;;;5.63;;
49237;SDS011;35069;47.906;1.892;2024-02-26T01:38:57;25.75;;;4.68;;
49237;SDS011;35069;47.906;1.892;2024-02-26T01:41:23;22.38;;;4.05;;
49237;SDS011;35069;47.906;1.892;2024-02-26T01:43:48;29.08;;;4.95;;
49237;SDS011;35069;47.906;1.892;2024-02-26T01:46:14;21.05;;;4.95;;
49237;SDS011;35069;47.906;1.892;2024-02-26T01:48:41;17.92;;;4.88;;
49237;SDS011;35069;47.906;1.892;2024-02-26T01:51:08;21.27;;;3.90;;
49237;SDS011;35069;47.906;1.892;2024-02-26T01:53:35;17.95;;;4.18;;
49237;SDS011;35069;47.906;1.892;2024-02-26T01:56:01;26.00;;;5.65;;
49237;SDS011;35069;47.906;1.892;2024-02-26T01:58:27;33.70;;;5.97;;
49237;SDS011;35069;47.906;1.892;2024-02-26T02:00:55;19.80;;;4.63;;
49237;SDS011;35069;47.906;1.892;2024-02-26T02:03:21;17.65;;;4.40;;
49237;SDS011;35069;47.906;1.892;2024-02-26T02:05:47;22.85;;;5.07;;
49237;SDS011;35069;47.906;1.892;2024-02-26T02:08:12;14.88;;;4.97;;
49237;SDS011;35069;47.906;1.892;2024-02-26T02:10:39;30.98;;;5.60;;
49237;SDS011;35069;47.906;1.892;2024-02-26T02:13:06;26.20;;;5.10;;
49237;SDS011;35069;47.906;1.892;2024-02-26T02:15:32;18.27;;;3.80;;
49237;SDS011;35069;47.906;1.892;2024-02-26T02:17:58;24.65;;;4.82;;
49237;SDS011;35069;47.906;1.892;2024-02-26T02:20:31;28.13;;;5.50;;
49237;SDS011;35069;47.906;1.892;2024-02-26T02:23:00;23.80;;;4.40;;
49237;SDS011;35069;47.906;1.892;2024-02-26T02:25:26;17.25;;;4.00;;
49237;SDS011;35069;47.906;1.892;2024-02-26T02:27:51;17.45;;;5.07;;
49237;SDS011;35069;47.906;1.892;2024-02-26T02:30:19;21.50;;;4.00;;
49237;SDS011;35069;47.906;1.892;2024-02-26T02:32:46;14.02;;;2.92;;
49237;SDS011;35069;47.906;1.892;2024-02-26T02:35:12;12.10;;;3.42;;
49237;SDS011;35069;47.906;1.892;2024-02-26T02:37:37;22.48;;;4.45;;
49237;SDS011;35069;47.906;1.892;2024-02-26T02:40:03;17.15;;;2.95;;
49237;SDS011;35069;47.906;1.892;2024-02-26T02:42:30;16.95;;;2.78;;
49237;SDS011;35069;47.906;1.892;2024-02-26T02:44:55;15.48;;;2.28;;
49237;SDS011;35069;47.906;1.892;2024-02-26T02:47:21;12.65;;;2.50;;
49237;SDS011;35069;47.906;1.892;2024-02-26T02:49:47;13.93;;;2.92;;
49237;SDS011;35069;47.906;1.892;2024-02-26T02:52:12;17.05;;;3.17;;
49237;SDS011;35069;47.906;1.892;2024-02-26T02:54:38;10.90;;;2.25;;
49237;SDS011;35069;47.906;1.892;2024-02-26T02:57:06;12.43;;;3.70;;
49237;SDS011;35069;47.906;1.892;2024-02-26T02:59:32;7.60;;;2.47;;
49237;SDS011;35069;47.906;1.892;2024-02-26T03:01:58;8.82;;;1.70;;
49237;SDS011;35069;47.906;1.892;2024-02-26T03:04:24;12.25;;;1.67;;
49237;SDS011;35069;47.906;1.892;2024-02-26T03:06:49;7.78;;;1.58;;
49237;SDS011;35069;47.906;1.892;2024-02-26T03:09:15;5.78;;;1.50;;
49237;SDS011;35069;47.906;1.892;2024-02-26T03:11:41;7.95;;;1.30;;
49237;SDS011;35069;47.906;1.892;2024-02-26T03:14:09;7.00;;;1.23;;
49237;SDS011;35069;47.906;1.892;2024-02-26T03:16:35;8.48;;;1.25;;
49237;SDS011;35069;47.906;1.892;2024-02-26T03:19:00;4.53;;;1.20;;
49237;SDS011;35069;47.906;1.892;2024-02-26T03:21:26;4.93;;;1.38;;
49237;SDS011;35069;47.906;1.892;2024-02-26T03:23:52;3.25;;;1.10;;
49237;SDS011;35069;47.906;1.892;2024-02-26T03:26:18;4.20;;;0.82;;
49237;SDS011;35069;47.906;1.892;2024-02-26T03:28:44;2.13;;;0.60;;
49237;SDS011;35069;47.906;1.892;2024-02-26T03:31:09;2.85;;;0.65;;
49237;SDS011;35069;47.906;1.892;2024-02-26T03:33:35;1.85;;;0.80;;
49237;SDS011;35069;47.906;1.892;2024-02-26T03:36:01;3.38;;;0.80;;
49237;SDS011;35069;47.906;1.892;2024-02-26T03:38:28;6.60;;;1.33;;
49237;SDS011;35069;47.906;1.892;2024-02-26T03:40:54;4.40;;;0.93;;
49237;SDS011;35069;47.906;1.892;2024-02-26T03:43:19;2.38;;;0.75;;
49237;SDS011;35069;47.906;1.892;2024-02-26T03:45:45;7.72;;;1.05;;
49237;SDS011;35069;47.906;1.892;2024-02-26T03:48:10;6.18;;;1.30;;
49237;SDS011;35069;47.906;1.892;2024-02-26T03:50:36;7.85;;;1.60;;
49237;SDS011;35069;47.906;1.892;2024-02-26T03:53:02;10.25;;;1.98;;
49237;SDS011;35069;47.906;1.892;2024-02-26T03:55:27;10.40;;;3.10;;
49237;SDS011;35069;47.906;1.892;2024-02-26T03:57:53;6.88;;;1.63;;
49237;SDS011;35069;47.906;1.892;2024-02-26T04:00:19;7.60;;;1.50;;
49237;SDS011;35069;47.906;1.892;2024-02-26T04:02:46;9.18;;;1.58;;
49237;SDS011;35069;47.906;1.892;2024-02-26T04:05:13;9.35;;;1.85;;
49237;SDS011;35069;47.906;1.892;2024-02-26T04:07:42;8.05;;;1.35;;
49237;SDS011;35069;47.906;1.892;2024-02-26T04:10:11;10.50;;;2.47;;
49237;SDS011;35069;47.906;1.892;2024-02-26T04:12:40;6.18;;;1.83;;
49237;SDS011;35069;47.906;1.892;2024-02-26T04:15:07;14.23;;;2.30;;
49237;SDS011;35069;47.906;1.892;2024-02-26T04:17:33;8.30;;;1.90;;
49237;SDS011;35069;47.906;1.892;2024-02-26T04:19:59;8.07;;;2.00;;
49237;SDS011;35069;47.906;1.892;2024-02-26T04:22:24;9.65;;;2.60;;
49237;SDS011;35069;47.906;1.892;2024-02-26T04:24:50;11.18;;;2.67;;
49237;SDS011;35069;47.906;1.892;2024-02-26T04:27:15;13.18;;;2.63;;
49237;SDS011;35069;47.906;1.892;2024-02-26T04:29:41;8.70;;;1.83;;
49237;SDS011;35069;47.906;1.892;2024-02-26T04:32:06;15.80;;;2.22;;
49237;SDS011;35069;47.906;1.892;2024-02-26T04:34:32;9.50;;;2.38;;
49237;SDS011;35069;47.906;1.892;2024-02-26T04:36:57;10.57;;;2.85;;
49237;SDS011;35069;47.906;1.892;2024-02-26T04:39:23;17.80;;;3.35;;
49237;SDS011;35069;47.906;1.892;2024-02-26T04:41:49;16.30;;;3.45;;
49237;SDS011;35069;47.906;1.892;2024-02-26T04:44:14;18.58;;;3.10;;
49237;SDS011;35069;47.906;1.892;2024-02-26T04:46:40;9.55;;;2.20;;
49237;SDS011;35069;47.906;1.892;2024-02-26T04:49:05;11.93;;;3.10;;
49237;SDS011;35069;47.906;1.892;2024-02-26T04:51:31;9.93;;;3.08;;
49237;SDS011;35069;47.906;1.892;2024-02-26T04:53:56;17.17;;;2.92;;
49237;SDS011;35069;47.906;1.892;2024-02-26T04:56:22;10.88;;;2.80;;
49237;SDS011;35069;47.906;1.892;2024-02-26T04:58:47;14.68;;;4.00;;
49237;SDS011;35069;47.906;1.892;2024-02-26T05:01:13;16.45;;;2.97;;
49237;SDS011;35069;47.906;1.892;2024-02-26T05:03:41;9.18;;;2.92;;
49237;SDS011;35069;47.906;1.892;2024-02-26T05:06:06;9.85;;;2.88;;
49237;SDS011;35069;47.906;1.892;2024-02-26T05:08:32;12.48;;;2.60;;
49237;SDS011;35069;47.906;1.892;2024-02-26T05:11:00;17.55;;;2.40;;
49237;SDS011;35069;47.906;1.892;2024-02-26T05:13:27;13.75;;;2.90;;
49237;SDS011;35069;47.906;1.892;2024-02-26T05:15:53;20.33;;;3.25;;
49237;SDS011;35069;47.906;1.892;2024-02-26T05:18:19;16.40;;;2.65;;
49237;SDS011;35069;47.906;1.892;2024-02-26T05:20:45;18.80;;;2.97;;
49237;SDS011;35069;47.906;1.892;2024-02-26T05:23:10;10.38;;;2.40;;
49237;SDS011;35069;47.906;1.892;2024-02-26T05:25:36;18.58;;;3.13;;
49237;SDS011;35069;47.906;1.892;2024-02-26T05:28:02;8.05;;;2.58;;
49237;SDS011;35069;47.906;1.892;2024-02-26T05:30:28;11.43;;;2.53;;
49237;SDS011;35069;47.906;1.892;2024-02-26T05:32:54;6.72;;;2.60;;
49237;SDS011;35069;47.906;1.892;2024-02-26T05:35:19;13.50;;;3.28;;
49237;SDS011;35069;47.906;1.892;2024-02-26T05:37:45;8.35;;;2.40;;
49237;SDS011;35069;47.906;1.892;2024-02-26T05:40:11;8.18;;;2.55;;
49237;SDS011;35069;47.906;1.892;2024-02-26T05:42:37;18.15;;;3.00;;
49237;SDS011;35069;47.906;1.892;2024-02-26T05:45:02;7.45;;;2.80;;
49237;SDS011;35069;47.906;1.892;2024-02-26T05:47:34;21.88;;;2.70;;
49237;SDS011;35069;47.906;1.892;2024-02-26T05:50:00;16.23;;;3.65;;
49237;SDS011;35069;47.906;1.892;2024-02-26T05:52:27;15.95;;;2.90;;
49237;SDS011;35069;47.906;1.892;2024-02-26T05:54:54;12.52;;;3.78;;
49237;SDS011;35069;47.906;1.892;2024-02-26T05:57:19;8.70;;;2.08;;
49237;SDS011;35069;47.906;1.892;2024-02-26T05:59:45;5.93;;;1.95;;
49237;SDS011;35069;47.906;1.892;2024-02-26T06:02:11;4.88;;;1.95;;
49237;SDS011;35069;47.906;1.892;2024-02-26T06:04:36;6.57;;;1.60;;
49237;SDS011;35069;47.906;1.892;2024-02-26T06:07:02;9.68;;;2.80;;
49237;SDS011;35069;47.906;1.892;2024-02-26T06:09:27;15.10;;;2.20;;
49237;SDS011;35069;47.906;1.892;2024-02-26T06:11:53;8.85;;;2.42;;
49237;SDS011;35069;47.906;1.892;2024-02-26T06:14:19;10.48;;;3.33;;
49237;SDS011;35069;47.906;1.892;2024-02-26T06:16:45;7.25;;;2.22;;
49237;SDS011;35069;47.906;1.892;2024-02-26T06:19:11;8.73;;;2.10;;
49237;SDS011;35069;47.906;1.892;2024-02-26T06:21:36;7.80;;;2.05;;
49237;SDS011;35069;47.906;1.892;2024-02-26T06:24:02;12.07;;;2.58;;
49237;SDS011;35069;47.906;1.892;2024-02-26T06:26:28;9.55;;;2.03;;
49237;SDS011;35069;47.906;1.892;2024-02-26T06:28:54;7.22;;;2.70;;
49237;SDS011;35069;47.906;1.892;2024-02-26T06:31:21;9.35;;;2.83;;
49237;SDS011;35069;47.906;1.892;2024-02-26T06:33:47;11.05;;;3.35;;
49237;SDS011;35069;47.906;1.892;2024-02-26T06:36:13;8.27;;;2.25;;
49237;SDS011;35069;47.906;1.892;2024-02-26T06:38:40;14.00;;;3.22;;
49237;SDS011;35069;47.906;1.892;2024-02-26T06:41:06;11.45;;;2.00;;
49237;SDS011;35069;47.906;1.892;2024-02-26T06:43:32;8.70;;;2.10;;
49237;SDS011;35069;47.906;1.892;2024-02-26T06:45:57;5.50;;;2.22;;
49237;SDS011;35069;47.906;1.892;2024-02-26T06:48:23;5.07;;;1.48;;
49237;SDS011;35069;47.906;1.892;2024-02-26T06:50:49;7.20;;;2.33;;
49237;SDS011;35069;47.906;1.892;2024-02-26T06:53:15;4.07;;;1.83;;
49237;SDS011;35069;47.906;1.892;2024-02-26T06:55:41;13.90;;;1.75;;
49237;SDS011;35069;47.906;1.892;2024-02-26T06:58:07;8.48;;;3.75;;
49237;SDS011;35069;47.906;1.892;2024-02-26T07:00:33;9.40;;;3.28;;
49237;SDS011;35069;47.906;1.892;2024-02-26T07:02:59;7.55;;;2.50;;
49237;SDS011;35069;47.906;1.892;2024-02-26T07:05:25;7.18;;;2.05;;
49237;SDS011;35069;47.906;1.892;2024-02-26T07:07:50;7.80;;;2.05;;
49237;SDS011;35069;47.906;1.892;2024-02-26T07:10:16;7.10;;;2.03;;
49237;SDS011;35069;47.906;1.892;2024-02-26T07:12:41;8.60;;;2.15;;
49237;SDS011;35069;47.906;1.892;2024-02-26T07:15:07;8.95;;;2.60;;
49237;SDS011;35069;47.906;1.892;2024-02-26T07:17:34;9.57;;;2.30;;
49237;SDS011;35069;47.906;1.892;2024-02-26T07:19:59;7.97;;;2.30;;
49237;SDS011;35069;47.906;1.892;2024-02-26T07:22:25;12.65;;;2.60;;
49237;SDS011;35069;47.906;1.892;2024-02-26T07:24:50;5.53;;;2.00;;
49237;SDS011;35069;47.906;1.892;2024-02-26T07:27:17;6.80;;;1.92;;
49237;SDS011;35069;47.906;1.892;2024-02-26T07:29:43;9.23;;;2.50;;
49237;SDS011;35069;47.906;1.892;2024-02-26T07:32:12;10.68;;;2.78;;
49237;SDS011;35069;47.906;1.892;2024-02-26T07:34:38;9.82;;;1.95;;
49237;SDS011;35069;47.906;1.892;2024-02-26T07:37:06;8.05;;;2.03;;
49237;SDS011;35069;47.906;1.892;2024-02-26T07:39:32;6.80;;;2.08;;
49237;SDS011;35069;47.906;1.892;2024-02-26T07:41:58;4.80;;;2.13;;
49237;SDS011;35069;47.906;1.892;2024-02-26T07:44:24;8.52;;;2.17;;
49237;SDS011;35069;47.906;1.892;2024-02-26T07:46:49;5.22;;;1.70;;
49237;SDS011;35069;47.906;1.892;2024-02-26T07:49:15;4.28;;;1.77;;
49237;SDS011;35069;47.906;1.892;2024-02-26T07:51:41;4.03;;;1.90;;
49237;SDS011;35069;47.906;1.892;2024-02-26T07:54:07;9.98;;;1.92;;
49237;SDS011;35069;47.906;1.892;2024-02-26T07:56:32;3.88;;;1.75;;
49237;SDS011;35069;47.906;1.892;2024-02-26T07:58:58;7.07;;;1.92;;
49237;SDS011;35069;47.906;1.892;2024-02-26T08:01:24;9.85;;;2.22;;
49237;SDS011;35069;47.906;1.892;2024-02-26T08:03:51;7.88;;;2.30;;
49237;SDS011;35069;47.906;1.892;2024-02-26T08:06:18;9.45;;;2.38;;
49237;SDS011;35069;47.906;1.892;2024-02-26T08:08:43;8.48;;;1.65;;
49237;SDS011;35069;47.906;1.892;2024-02-26T08:11:09;8.60;;;2.38;;
49237;SDS011;35069;47.906;1.892;2024-02-26T08:13:35;4.47;;;2.33;;
49237;SDS011;35069;47.906;1.892;2024-02-26T08:16:01;12.23;;;3.58;;
49237;SDS011;35069;47.906;1.892;2024-02-26T08:18:26;5.70;;;2.45;;
49237;SDS011;35069;47.906;1.892;2024-02-26T08:20:52;7.38;;;3.03;;
49237;SDS011;35069;47.906;1.892;2024-02-26T08:23:17;6.65;;;2.92;;
49237;SDS011;35069;47.906;1.892;2024-02-26T08:25:43;7.07;;;3.22;;
49237;SDS011;35069;47.906;1.892;2024-02-26T08:28:09;8.07;;;4.25;;
49237;SDS011;35069;47.906;1.892;2024-02-26T08:30:38;7.00;;;3.58;;
49237;SDS011;35069;47.906;1.892;2024-02-26T08:33:03;7.10;;;3.08;;
49237;SDS011;35069;47.906;1.892;2024-02-26T08:35:29;7.18;;;3.55;;
49237;SDS011;35069;47.906;1.892;2024-02-26T08:37:55;8.40;;;2.95;;
49237;SDS011;35069;47.906;1.892;2024-02-26T08:40:20;7.53;;;2.95;;
49237;SDS011;35069;47.906;1.892;2024-02-26T08:42:46;5.82;;;3.00;;
49237;SDS011;35069;47.906;1.892;2024-02-26T08:45:12;8.57;;;2.67;;
49237;SDS011;35069;47.906;1.892;2024-02-26T08:47:37;5.63;;;2.97;;
49237;SDS011;35069;47.906;1.892;2024-02-26T08:50:03;6.95;;;2.30;;
49237;SDS011;35069;47.906;1.892;2024-02-26T08:52:30;5.88;;;2.38;;
49237;SDS011;35069;47.906;1.892;2024-02-26T08:54:55;7.60;;;2.15;;
49237;SDS011;35069;47.906;1.892;2024-02-26T08:57:22;5.35;;;2.30;;
49237;SDS011;35069;47.906;1.892;2024-02-26T08:59:48;3.25;;;1.70;;
49237;SDS011;35069;47.906;1.892;2024-02-26T09:02:13;9.82;;;2.28;;
49237;SDS011;35069;47.906;1.892;2024-02-26T09:04:39;3.47;;;1.20;;
49237;SDS011;35069;47.906;1.892;2024-02-26T09:07:05;5.18;;;2.05;;
49237;SDS011;35069;47.906;1.892;2024-02-26T09:09:31;6.40;;;1.70;;
49237;SDS011;35069;47.906;1.892;2024-02-26T09:11:57;6.07;;;1.40;;
49237;SDS011;35069;47.906;1.892;2024-02-26T09:14:23;3.75;;;1.85;;
49237;SDS011;35069;47.906;1.892;2024-02-26T09:16:49;6.28;;;1.50;;
49237;SDS011;35069;47.906;1.892;2024-02-26T09:19:14;5.18;;;2.20;;
49237;SDS011;35069;47.906;1.892;2024-02-26T09:21:43;3.60;;;1.27;;
49237;SDS011;35069;47.906;1.892;2024-02-26T09:24:10;4.47;;;1.50;;
49237;SDS011;35069;47.906;1.892;2024-02-26T09:26:38;2.47;;;1.05;;
49237;SDS011;35069;47.906;1.892;2024-02-26T09:29:04;7.40;;;1.27;;
49237;SDS011;35069;47.906;1.892;2024-02-26T09:31:30;2.03;;;1.17;;
49237;SDS011;35069;47.906;1.892;2024-02-26T09:33:56;1.08;;;0.98;;
49237;SDS011;35069;47.906;1.892;2024-02-26T09:36:22;2.05;;;1.52;;
49237;SDS011;35069;47.906;1.892;2024-02-26T09:38:48;2.60;;;1.58;;
49237;SDS011;35069;47.906;1.892;2024-02-26T09:41:16;2.53;;;1.25;;
49237;SDS011;35069;47.906;1.892;2024-02-26T09:43:43;1.55;;;1.10;;
49237;SDS011;35069;47.906;1.892;2024-02-26T09:46:11;2.65;;;0.90;;
49237;SDS011;35069;47.906;1.892;2024-02-26T09:48:37;3.22;;;1.40;;
49237;SDS011;35069;47.906;1.892;2024-02-26T09:51:03;3.33;;;1.88;;
49237;SDS011;35069;47.906;1.892;2024-02-26T09:53:30;4.10;;;2.03;;
49237;SDS011;35069;47.906;1.892;2024-02-26T09:55:57;2.60;;;2.10;;
49237;SDS011;35069;47.906;1.892;2024-02-26T09:58:24;7.50;;;3.55;;
49237;SDS011;35069;47.906;1.892;2024-02-26T10:00:55;7.82;;;3.78;;
49237;SDS011;35069;47.906;1.892;2024-02-26T10:03:28;4.22;;;2.38;;
49237;SDS011;35069;47.906;1.892;2024-02-26T10:05:59;6.60;;;2.28;;
49237;SDS011;35069;47.906;1.892;2024-02-26T10:08:27;4.57;;;3.10;;
49237;SDS011;35069;47.906;1.892;2024-02-26T10:10:54;4.50;;;1.83;;
49237;SDS011;35069;47.906;1.892;2024-02-26T10:13:22;1.63;;;0.95;;
49237;SDS011;35069;47.906;1.892;2024-02-26T10:15:48;2.30;;;0.68;;
49237;SDS011;35069;47.906;1.892;2024-02-26T10:18:14;2.65;;;0.70;;
49237;SDS011;35069;47.906;1.892;2024-02-26T10:20:40;1.02;;;0.70;;
49237;SDS011;35069;47.906;1.892;2024-02-26T10:23:05;2.45;;;0.85;;
49237;SDS011;35069;47.906;1.892;2024-02-26T10:25:31;0.63;;;0.40;;
49237;SDS011;35069;47.906;1.892;2024-02-26T10:28:00;2.10;;;0.70;;
49237;SDS011;35069;47.906;1.892;2024-02-26T10:30:29;0.65;;;0.30;;
49237;SDS011;35069;47.906;1.892;2024-02-26T10:32:55;0.52;;;0.35;;
49237;SDS011;35069;47.906;1.892;2024-02-26T10:35:22;0.75;;;0.15;;
49237;SDS011;35069;47.906;1.892;2024-02-26T10:37:48;0.55;;;0.55;;
49237;SDS011;35069;47.906;1.892;2024-02-26T10:40:14;2.05;;;0.73;;
49237;SDS011;35069;47.906;1.892;2024-02-26T10:42:41;1.83;;;0.70;;
49237;SDS011;35069;47.906;1.892;2024-02-26T10:45:07;1.38;;;0.30;;
49237;SDS011;35069;47.906;1.892;2024-02-26T10:47:34;0.60;;;0.60;;
49237;SDS011;35069;47.906;1.892;2024-02-26T10:50:04;1.13;;;0.40;;
49237;SDS011;35069;47.906;1.892;2024-02-26T10:52:35;0.60;;;0.60;;
49237;SDS011;35069;47.906;1.892;2024-02-26T10:55:02;1.27;;;0.80;;
49237;SDS011;35069;47.906;1.892;2024-02-26T10:57:31;0.60;;;0.60;;
49237;SDS011;35069;47.906;1.892;2024-02-26T11:00:10;1.75;;;0.60;;
49237;SDS011;35069;47.906;1.892;2024-02-26T11:02:39;1.13;;;0.60;;
49237;SDS011;35069;47.906;1.892;2024-02-26T11:05:05;0.77;;;0.73;;
49237;SDS011;35069;47.906;1.892;2024-02-26T11:07:32;0.60;;;0.50;;
49237;SDS011;35069;47.906;1.892;2024-02-26T11:10:01;2.03;;;1.52;;
49237;SDS011;35069;47.906;1.892;2024-02-26T11:12:34;0.90;;;0.90;;
49237;SDS011;35069;47.906;1.892;2024-02-26T11:17:29;2.20;;;1.30;;
49237;SDS011;35069;47.906;1.892;2024-02-26T11:19:59;2.20;;;0.88;;
49237;SDS011;35069;47.906;1.892;2024-02-26T11:22:27;2.25;;;1.05;;
49237;SDS011;35069;47.906;1.892;2024-02-26T11:24:54;2.20;;;0.57;;
49237;SDS011;35069;47.906;1.892;2024-02-26T11:27:27;1.10;;;0.98;;
49237;SDS011;35069;47.906;1.892;2024-02-26T11:30:02;2.17;;;1.02;;
49237;SDS011;35069;47.906;1.892;2024-02-26T11:32:30;1.02;;;0.80;;
49237;SDS011;35069;47.906;1.892;2024-02-26T11:34:56;1.00;;;0.90;;
49237;SDS011;35069;47.906;1.892;2024-02-26T11:37:23;1.48;;;0.88;;
49237;SDS011;35069;47.906;1.892;2024-02-26T11:39:49;1.20;;;1.08;;
49237;SDS011;35069;47.906;1.892;2024-02-26T11:42:16;0.90;;;0.90;;
49237;SDS011;35069;47.906;1.892;2024-02-26T11:44:43;1.23;;;1.13;;
49237;SDS011;35069;47.906;1.892;2024-02-26T11:47:21;2.72;;;0.90;;
49237;SDS011;35069;47.906;1.892;2024-02-26T11:49:51;0.88;;;0.88;;
49237;SDS011;35069;47.906;1.892;2024-02-26T11:52:17;1.65;;;0.85;;
49237;SDS011;35069;47.906;1.892;2024-02-26T11:57:25;0.70;;;0.70;;
49237;SDS011;35069;47.906;1.892;2024-02-26T11:59:53;1.58;;;0.80;;
49237;SDS011;35069;47.906;1.892;2024-02-26T12:05:25;1.00;;;0.80;;
49237;SDS011;35069;47.906;1.892;2024-02-26T12:07:54;3.05;;;0.95;;
49237;SDS011;35069;47.906;1.892;2024-02-26T12:10:24;1.88;;;0.60;;
49237;SDS011;35069;47.906;1.892;2024-02-26T12:12:54;0.95;;;0.95;;
49237;SDS011;35069;47.906;1.892;2024-02-26T12:15:26;1.02;;;0.50;;
49237;SDS011;35069;47.906;1.892;2024-02-26T12:17:55;4.93;;;0.43;;
49237;SDS011;35069;47.906;1.892;2024-02-26T12:20:21;1.73;;;0.50;;
49237;SDS011;35069;47.906;1.892;2024-02-26T12:22:47;0.50;;;0.50;;
49237;SDS011;35069;47.906;1.892;2024-02-26T12:25:16;0.80;;;0.38;;
49237;SDS011;35069;47.906;1.892;2024-02-26T12:27:41;1.63;;;0.75;;
49237;SDS011;35069;47.906;1.892;2024-02-26T12:30:08;1.77;;;0.80;;
49237;SDS011;35069;47.906;1.892;2024-02-26T12:32:34;0.65;;;0.28;;
49237;SDS011;35069;47.906;1.892;2024-02-26T12:35:01;0.25;;;0.20;;
49237;SDS011;35069;47.906;1.892;2024-02-26T12:37:27;0.77;;;0.52;;
49237;SDS011;35069;47.906;1.892;2024-02-26T12:39:53;1.33;;;0.93;;
49237;SDS011;35069;47.906;1.892;2024-02-26T12:42:19;0.30;;;0.30;;
49237;SDS011;35069;47.906;1.892;2024-02-26T12:44:49;0.22;;;0.20;;
49237;SDS011;35069;47.906;1.892;2024-02-26T12:47:15;1.27;;;0.57;;
49237;SDS011;35069;47.906;1.892;2024-02-26T12:49:46;0.52;;;0.50;;
49237;SDS011;35069;47.906;1.892;2024-02-26T12:52:13;0.88;;;0.63;;
49237;SDS011;35069;47.906;1.892;2024-02-26T12:54:39;0.45;;;0.45;;
49237;SDS011;35069;47.906;1.892;2024-02-26T12:57:07;3.20;;;0.55;;
49237;SDS011;35069;47.906;1.892;2024-02-26T12:59:34;2.20;;;0.50;;
49237;SDS011;35069;47.906;1.892;2024-02-26T13:02:01;0.63;;;0.50;;
49237;SDS011;35069;47.906;1.892;2024-02-26T13:04:28;1.55;;;0.60;;
49237;SDS011;35069;47.906;1.892;2024-02-26T13:06:55;0.60;;;0.60;;
49237;SDS011;35069;47.906;1.892;2024-02-26T13:09:25;0.47;;;0.30;;
49237;SDS011;35069;47.906;1.892;2024-02-26T13:11:55;0.70;;;0.70;;
49237;SDS011;35069;47.906;1.892;2024-02-26T13:14:20;0.90;;;0.38;;
49237;SDS011;35069;47.906;1.892;2024-02-26T13:16:56;0.73;;;0.35;;
49237;SDS011;35069;47.906;1.892;2024-02-26T13:19:22;1.25;;;0.50;;
49237;SDS011;35069;47.906;1.892;2024-02-26T13:21:48;1.63;;;0.80;;
49237;SDS011;35069;47.906;1.892;2024-02-26T13:24:14;2.47;;;0.70;;
49237;SDS011;35069;47.906;1.892;2024-02-26T13:26:39;0.60;;;0.60;;
49237;SDS011;35069;47.906;1.892;2024-02-26T13:29:05;1.13;;;0.63;;
49237;SDS011;35069;47.906;1.892;2024-02-26T13:31:31;1.38;;;0.40;;
49237;SDS011;35069;47.906;1.892;2024-02-26T13:34:03;2.60;;;0.70;;
49237;SDS011;35069;47.906;1.892;2024-02-26T13:36:29;1.45;;;0.50;;
49237;SDS011;35069;47.906;1.892;2024-02-26T13:38:55;1.27;;;0.70;;
49237;SDS011;35069;47.906;1.892;2024-02-26T13:41:23;2.08;;;0.60;;
49237;SDS011;35069;47.906;1.892;2024-02-26T13:43:49;1.15;;;0.70;;
49237;SDS011;35069;47.906;1.892;2024-02-26T13:46:15;0.80;;;0.40;;
49237;SDS011;35069;47.906;1.892;2024-02-26T13:48:42;2.53;;;1.05;;
49237;SDS011;35069;47.906;1.892;2024-02-26T13:51:07;1.00;;;0.60;;
49237;SDS011;35069;47.906;1.892;2024-02-26T13:53:33;3.63;;;1.05;;
49237;SDS011;35069;47.906;1.892;2024-02-26T13:55:58;0.95;;;0.40;;
49237;SDS011;35069;47.906;1.892;2024-02-26T13:58:26;0.85;;;0.45;;
49237;SDS011;35069;47.906;1.892;2024-02-26T14:00:52;5.18;;;0.88;;
49237;SDS011;35069;47.906;1.892;2024-02-26T14:03:19;0.82;;;0.65;;
49237;SDS011;35069;47.906;1.892;2024-02-26T14:05:45;1.27;;;0.80;;
49237;SDS011;35069;47.906;1.892;2024-02-26T14:08:11;1.55;;;0.60;;
49237;SDS011;35069;47.906;1.892;2024-02-26T14:10:36;2.05;;;0.80;;
49237;SDS011;35069;47.906;1.892;2024-02-26T14:13:02;1.00;;;0.77;;
49237;SDS011;35069;47.906;1.892;2024-02-26T14:15:28;10.82;;;1.52;;
49237;SDS011;35069;47.906;1.892;2024-02-26T14:17:54;2.10;;;0.93;;
49237;SDS011;35069;47.906;1.892;2024-02-26T14:20:21;12.23;;;8.95;;
49237;SDS011;35069;47.906;1.892;2024-02-26T14:22:47;19.95;;;11.10;;
49237;SDS011;35069;47.906;1.892;2024-02-26T14:25:14;1.42;;;0.82;;
49237;SDS011;35069;47.906;1.892;2024-02-26T14:27:39;3.10;;;2.60;;
49237;SDS011;35069;47.906;1.892;2024-02-26T14:30:05;1.10;;;0.70;;
49237;SDS011;35069;47.906;1.892;2024-02-26T14:32:31;1.55;;;1.42;;
49237;SDS011;35069;47.906;1.892;2024-02-26T14:35:01;1.67;;;1.00;;
49237;SDS011;35069;47.906;1.892;2024-02-26T14:37:28;1.23;;;1.00;;
49237;SDS011;35069;47.906;1.892;2024-02-26T14:39:53;0.80;;;0.80;;
49237;SDS011;35069;47.906;1.892;2024-02-26T14:42:19;0.68;;;0.40;;
49237;SDS011;35069;47.906;1.892;2024-02-26T14:44:44;1.05;;;0.80;;
49237;SDS011;35069;47.906;1.892;2024-02-26T14:47:12;0.90;;;0.90;;